Terminal Aerodrome Forecast
Issued by NWS

Home | Current Version | Previous Version | Text Only | Print | Product List | Glossary On
Versions: 1 2 3 4 5 6 7 8 9 10 11 12 13 14 15 16 17 18 19
000
FTAK31 PAJN 122300
TAFAYA
TAF
PAYA 122322Z 1300/1324 09006KT 2SM -RA BR BKN007 OVC012
     FM130800 00000KT 2SM -DZ BR BKN005 OVC010
     FM132100 27004KT P6SM SCT006 BKN015 OVC040
      AMD LTD TO CLD VIS AND WIND 1301/1310=

USA.gov is the U.S. government's official web portal to all federal, state and local government web resources and services.